Time;durP1;ratioP1;P1;durP2;ratioP2;P2;SDS_P1;SDS_P2;PMS_P1;PMS_P2;Temp;Humidity;BMP_temperature;BMP_pressure;BME280_temperature;BME280_humidity;BME280_pressure;Samples;Min_cycle;Max_cycle;Signal;HPM_P1;HPM_P2
2021/07/15 00:01:32;;;;;;;1.50;1.40;;;;;;;;;;468773;254;28144;-75
2021/07/15 00:03:34;;;;;;;1.80;1.70;;;;;;;;;;468790;253;27950;-75
2021/07/15 00:05:36;;;;;;;1.63;1.53;;;;;;;;;;468791;253;28060;-75
2021/07/15 00:07:38;;;;;;;1.40;1.40;;;;;;;;;;468784;253;27634;-74
2021/07/15 00:09:40;;;;;;;1.80;1.70;;;;;;;;;;468774;254;28064;-75
2021/07/15 00:11:44;;;;;;;1.60;1.50;;;;;;;;;;468780;253;27729;-75
2021/07/15 00:13:44;;;;;;;1.50;1.40;;;;;;;;;;468688;254;28089;-74
2021/07/15 00:15:47;;;;;;;1.90;1.80;;;;;;;;;;468786;253;27591;-75
2021/07/15 00:17:48;;;;;;;2.07;1.90;;;;;;;;;;468751;253;28070;-75
2021/07/15 00:19:51;;;;;;;1.67;1.57;;;;;;;;;;468803;253;27595;-75
2021/07/15 00:21:53;;;;;;;1.77;1.67;;;;;;;;;;468759;253;28138;-74
2021/07/15 00:23:55;;;;;;;1.40;1.30;;;;;;;;;;468754;253;27600;-74
2021/07/15 00:25:57;;;;;;;1.77;1.67;;;;;;;;;;468784;253;28124;-74
2021/07/15 00:27:59;;;;;;;1.90;1.40;;;;;;;;;;468779;253;27678;-74
2021/07/15 00:30:01;;;;;;;1.70;1.60;;;;;;;;;;468798;253;28023;-74
2021/07/15 00:32:03;;;;;;;1.77;1.67;;;;;;;;;;468808;254;27610;-75
2021/07/15 00:34:05;;;;;;;1.50;1.40;;;;;;;;;;468803;253;28094;-74
2021/07/15 00:36:08;;;;;;;1.90;1.80;;;;;;;;;;468817;253;27551;-74
2021/07/15 00:38:10;;;;;;;2.00;1.90;;;;;;;;;;468797;253;28083;-75
2021/07/15 00:40:12;;;;;;;1.50;1.50;;;;;;;;;;468815;253;27616;-74
2021/07/15 00:42:14;;;;;;;2.00;1.80;;;;;;;;;;468811;254;28143;-75
2021/07/15 00:44:16;;;;;;;1.80;1.70;;;;;;;;;;468778;253;27637;-74
2021/07/15 00:46:18;;;;;;;2.43;2.23;;;;;;;;;;468820;253;28192;-74
2021/07/15 00:48:20;;;;;;;1.63;1.53;;;;;;;;;;468794;253;27535;-74
2021/07/15 00:50:22;;;;;;;1.80;1.70;;;;;;;;;;468829;253;28105;-75
2021/07/15 00:52:24;;;;;;;1.80;1.70;;;;;;;;;;468788;254;27564;-75
2021/07/15 00:54:27;;;;;;;1.90;1.80;;;;;;;;;;468815;253;28002;-74
2021/07/15 00:56:29;;;;;;;1.80;1.70;;;;;;;;;;468806;253;27739;-75
2021/07/15 00:58:31;;;;;;;2.10;2.00;;;;;;;;;;468811;253;28880;-74
2021/07/15 01:00:33;;;;;;;2.00;1.90;;;;;;;;;;468823;253;27960;-74
2021/07/15 01:02:35;;;;;;;1.70;1.60;;;;;;;;;;468804;253;28221;-75
2021/07/15 01:04:37;;;;;;;2.73;1.63;;;;;;;;;;468792;254;27600;-74
2021/07/15 01:06:39;;;;;;;2.00;1.90;;;;;;;;;;468782;253;28054;-74
2021/07/15 01:08:41;;;;;;;2.07;1.97;;;;;;;;;;468822;253;27610;-74
2021/07/15 01:10:43;;;;;;;1.60;1.50;;;;;;;;;;468817;253;28103;-75
2021/07/15 01:12:46;;;;;;;1.90;1.80;;;;;;;;;;468777;254;27718;-75
2021/07/15 01:14:48;;;;;;;1.50;1.50;;;;;;;;;;468784;253;28049;-75
2021/07/15 01:16:50;;;;;;;1.57;1.47;;;;;;;;;;468802;253;27601;-75
2021/07/15 01:18:52;;;;;;;2.10;1.67;;;;;;;;;;468846;253;28231;-74
2021/07/15 01:20:54;;;;;;;1.30;1.30;;;;;;;;;;468840;253;27602;-74
2021/07/15 01:22:56;;;;;;;1.90;1.80;;;;;;;;;;468835;253;28060;-75
2021/07/15 01:24:58;;;;;;;1.73;1.63;;;;;;;;;;468839;253;27686;-74
2021/07/15 01:27:00;;;;;;;1.67;1.57;;;;;;;;;;468797;253;28057;-75
2021/07/15 01:29:02;;;;;;;1.80;1.70;;;;;;;;;;468791;253;27591;-75
2021/07/15 01:31:05;;;;;;;2.00;1.90;;;;;;;;;;468798;253;28058;-75
2021/07/15 01:33:07;;;;;;;1.80;1.70;;;;;;;;;;468784;253;27625;-75
2021/07/15 01:35:09;;;;;;;1.80;1.70;;;;;;;;;;468804;253;28009;-75
2021/07/15 01:37:11;;;;;;;1.73;1.63;;;;;;;;;;468787;253;27543;-75
2021/07/15 01:39:13;;;;;;;1.70;1.60;;;;;;;;;;468821;253;28039;-74
2021/07/15 01:41:15;;;;;;;1.80;1.70;;;;;;;;;;468813;253;27648;-74
2021/07/15 01:43:17;;;;;;;1.90;1.80;;;;;;;;;;468802;253;28083;-75
2021/07/15 01:45:19;;;;;;;1.80;1.70;;;;;;;;;;468812;253;27676;-75
2021/07/15 01:47:22;;;;;;;2.10;2.00;;;;;;;;;;468792;254;27995;-74
2021/07/15 01:49:24;;;;;;;1.80;1.70;;;;;;;;;;468803;253;27609;-75
2021/07/15 01:51:26;;;;;;;1.90;1.80;;;;;;;;;;468781;253;27981;-75
2021/07/15 01:53:28;;;;;;;2.57;2.37;;;;;;;;;;468796;253;27674;-75
2021/07/15 01:55:30;;;;;;;1.83;1.73;;;;;;;;;;468786;253;27991;-74
2021/07/15 01:57:32;;;;;;;1.80;1.70;;;;;;;;;;468791;253;27553;-74
2021/07/15 01:59:36;;;;;;;2.13;2.03;;;;;;;;;;468815;253;28054;-75
2021/07/15 02:01:36;;;;;;;1.77;1.67;;;;;;;;;;468696;254;27659;-75
2021/07/15 02:03:38;;;;;;;2.57;2.10;;;;;;;;;;468811;253;27995;-74
2021/07/15 02:05:41;;;;;;;2.27;2.07;;;;;;;;;;468812;253;27539;-74
2021/07/15 02:07:43;;;;;;;2.10;1.53;;;;;;;;;;468810;253;27991;-75
2021/07/15 02:09:45;;;;;;;1.93;1.83;;;;;;;;;;468799;253;27574;-74
2021/07/15 02:11:47;;;;;;;1.80;1.70;;;;;;;;;;468784;254;28230;-75
2021/07/15 02:13:49;;;;;;;1.60;1.50;;;;;;;;;;468764;253;28032;-74
2021/07/15 02:15:51;;;;;;;1.40;1.30;;;;;;;;;;468799;253;28143;-75
2021/07/15 02:17:53;;;;;;;1.47;1.43;;;;;;;;;;468791;253;27614;-74
2021/07/15 02:19:56;;;;;;;1.40;1.40;;;;;;;;;;468803;253;28050;-74
2021/07/15 02:21:57;;;;;;;1.40;1.40;;;;;;;;;;468780;253;27598;-75
2021/07/15 02:24:00;;;;;;;1.70;1.60;;;;;;;;;;468783;253;28120;-74
2021/07/15 02:26:02;;;;;;;1.70;1.60;;;;;;;;;;468798;253;27679;-74
2021/07/15 02:28:04;;;;;;;1.70;1.60;;;;;;;;;;468793;254;28074;-75
2021/07/15 02:30:06;;;;;;;1.50;1.40;;;;;;;;;;468813;253;27710;-75
2021/07/15 02:32:08;;;;;;;1.70;1.60;;;;;;;;;;468819;253;28067;-75
2021/07/15 02:34:10;;;;;;;1.40;1.37;;;;;;;;;;468800;253;27670;-75
2021/07/15 02:36:12;;;;;;;1.30;1.30;;;;;;;;;;468803;254;28052;-75
2021/07/15 02:38:14;;;;;;;1.63;1.37;;;;;;;;;;468808;253;27646;-75
2021/07/15 02:40:17;;;;;;;1.40;1.40;;;;;;;;;;468801;253;28045;-74
2021/07/15 02:42:19;;;;;;;1.27;1.23;;;;;;;;;;468828;253;27594;-75
2021/07/15 02:44:21;;;;;;;1.30;1.30;;;;;;;;;;468641;253;28100;-75
2021/07/15 02:46:23;;;;;;;1.73;1.63;;;;;;;;;;468798;253;27563;-74
2021/07/15 02:48:25;;;;;;;1.53;1.43;;;;;;;;;;468815;253;28019;-74
2021/07/15 02:50:27;;;;;;;1.37;1.23;;;;;;;;;;468819;254;28055;-74
2021/07/15 02:52:29;;;;;;;1.70;1.60;;;;;;;;;;468795;253;27993;-74
2021/07/15 02:54:31;;;;;;;1.20;1.20;;;;;;;;;;468790;253;27554;-74
2021/07/15 02:56:33;;;;;;;1.30;1.30;;;;;;;;;;468779;253;28181;-75
2021/07/15 02:58:35;;;;;;;1.50;1.40;;;;;;;;;;468798;254;27650;-74
2021/07/15 03:00:38;;;;;;;1.60;1.50;;;;;;;;;;468806;253;27995;-74
2021/07/15 03:02:40;;;;;;;1.50;1.40;;;;;;;;;;468792;253;27551;-74
2021/07/15 03:04:42;;;;;;;1.50;1.40;;;;;;;;;;468808;254;28066;-74
2021/07/15 03:06:44;;;;;;;1.60;1.50;;;;;;;;;;468790;254;27731;-74
2021/07/15 03:08:46;;;;;;;1.37;1.33;;;;;;;;;;468788;253;28194;-75
2021/07/15 03:10:48;;;;;;;1.20;1.20;;;;;;;;;;468803;253;27958;-75
2021/07/15 03:12:51;;;;;;;1.20;1.20;;;;;;;;;;468784;254;28012;-74
2021/07/15 03:14:53;;;;;;;1.30;1.30;;;;;;;;;;468812;253;27559;-75
2021/07/15 03:16:55;;;;;;;1.53;1.43;;;;;;;;;;468778;253;29220;-75
2021/07/15 03:18:57;;;;;;;1.60;1.50;;;;;;;;;;468777;253;27596;-75
2021/07/15 03:20:59;;;;;;;1.30;1.30;;;;;;;;;;468782;253;28239;-75
2021/07/15 03:23:01;;;;;;;1.57;1.47;;;;;;;;;;468785;254;27956;-75
2021/07/15 03:25:03;;;;;;;1.40;1.30;;;;;;;;;;468802;253;28162;-74
2021/07/15 03:27:05;;;;;;;1.43;1.33;;;;;;;;;;468806;254;27662;-74
2021/07/15 03:29:07;;;;;;;1.20;1.20;;;;;;;;;;468797;253;28073;-74
2021/07/15 03:31:09;;;;;;;1.37;1.10;;;;;;;;;;468793;253;27665;-75
2021/07/15 03:33:11;;;;;;;1.10;1.10;;;;;;;;;;468801;253;28059;-74
2021/07/15 03:35:14;;;;;;;1.90;1.20;;;;;;;;;;468784;253;27591;-75
2021/07/15 03:37:16;;;;;;;1.70;1.60;;;;;;;;;;468766;254;28063;-74
2021/07/15 03:39:18;;;;;;;1.43;1.43;;;;;;;;;;468750;253;27595;-74
2021/07/15 03:41:20;;;;;;;1.63;1.60;;;;;;;;;;468773;253;28085;-74
2021/07/15 03:43:22;;;;;;;1.47;1.47;;;;;;;;;;468761;253;27597;-74
2021/07/15 03:45:24;;;;;;;1.53;1.53;;;;;;;;;;468774;254;28206;-74
2021/07/15 03:47:26;;;;;;;1.40;1.40;;;;;;;;;;468790;253;27594;-74
2021/07/15 03:49:29;;;;;;;1.40;1.40;;;;;;;;;;468738;253;28200;-75
2021/07/15 03:51:30;;;;;;;1.80;1.70;;;;;;;;;;468745;253;27599;-75
2021/07/15 03:53:33;;;;;;;1.53;1.43;;;;;;;;;;468781;254;28047;-74
2021/07/15 03:55:35;;;;;;;1.30;1.30;;;;;;;;;;468768;254;27744;-74
2021/07/15 03:57:37;;;;;;;1.33;1.33;;;;;;;;;;468767;253;27632;-75
2021/07/15 03:59:39;;;;;;;1.37;1.37;;;;;;;;;;468773;254;27602;-74
2021/07/15 04:01:41;;;;;;;1.37;1.37;;;;;;;;;;468802;253;28109;-74
2021/07/15 04:03:43;;;;;;;1.50;1.40;;;;;;;;;;468847;253;27542;-75
2021/07/15 04:05:45;;;;;;;1.43;1.33;;;;;;;;;;468823;253;28029;-74
2021/07/15 04:07:47;;;;;;;1.70;1.60;;;;;;;;;;468843;253;27667;-74
2021/07/15 04:09:49;;;;;;;1.40;1.40;;;;;;;;;;468839;253;27992;-74
2021/07/15 04:11:52;;;;;;;1.87;1.30;;;;;;;;;;468827;253;27652;-74
2021/07/15 04:13:54;;;;;;;1.73;1.63;;;;;;;;;;468808;253;28630;-74
2021/07/15 04:15:56;;;;;;;1.50;1.50;;;;;;;;;;468818;253;27544;-75
2021/07/15 04:17:58;;;;;;;1.60;1.50;;;;;;;;;;468811;253;27756;-74
2021/07/15 04:20:00;;;;;;;1.50;1.50;;;;;;;;;;468809;253;27543;-74
2021/07/15 04:22:02;;;;;;;1.60;1.60;;;;;;;;;;468772;253;27543;-74
2021/07/15 04:24:04;;;;;;;1.67;1.57;;;;;;;;;;468825;254;27617;-74
2021/07/15 04:26:06;;;;;;;1.40;1.30;;;;;;;;;;468824;253;27623;-74
2021/07/15 04:28:09;;;;;;;1.10;1.10;;;;;;;;;;468803;253;27540;-74
2021/07/15 04:30:11;;;;;;;1.30;1.30;;;;;;;;;;468829;254;27625;-75
2021/07/15 04:32:13;;;;;;;1.40;1.40;;;;;;;;;;468769;253;27677;-75
2021/07/15 04:34:15;;;;;;;1.40;1.40;;;;;;;;;;468806;253;27701;-73
2021/07/15 04:36:17;;;;;;;1.20;1.20;;;;;;;;;;468821;253;27586;-74
2021/07/15 04:38:19;;;;;;;1.83;1.73;;;;;;;;;;468811;254;27674;-74
2021/07/15 04:40:21;;;;;;;1.60;1.50;;;;;;;;;;468820;253;27576;-75
2021/07/15 04:42:23;;;;;;;1.70;1.60;;;;;;;;;;468803;253;27579;-75
2021/07/15 04:44:25;;;;;;;1.60;1.50;;;;;;;;;;468792;254;27676;-74
2021/07/15 04:46:28;;;;;;;2.20;1.60;;;;;;;;;;468827;253;27707;-74
2021/07/15 04:48:30;;;;;;;1.60;1.50;;;;;;;;;;468773;253;27693;-75
2021/07/15 04:50:32;;;;;;;1.70;1.60;;;;;;;;;;468780;253;27695;-75
2021/07/15 04:52:34;;;;;;;1.70;1.60;;;;;;;;;;468789;253;27582;-75
2021/07/15 04:54:36;;;;;;;1.70;1.60;;;;;;;;;;468814;253;27582;-75
2021/07/15 04:56:38;;;;;;;1.80;1.70;;;;;;;;;;468830;253;27576;-74
2021/07/15 04:58:40;;;;;;;1.80;1.70;;;;;;;;;;468789;253;27571;-74
2021/07/15 05:00:42;;;;;;;1.57;1.57;;;;;;;;;;468819;253;27620;-74
2021/07/15 05:02:47;;;;;;;1.73;1.63;;;;;;;;;;468826;253;27591;-75
2021/07/15 05:04:47;;;;;;;1.30;1.30;;;;;;;;;;468347;254;27685;-74
2021/07/15 05:06:49;;;;;;;1.93;1.83;;;;;;;;;;468755;253;27564;-74
2021/07/15 05:08:51;;;;;;;1.70;1.60;;;;;;;;;;468708;249;27661;-74
2021/07/15 05:10:53;;;;;;;1.80;1.70;;;;;;;;;;468782;253;27603;-74
2021/07/15 05:12:55;;;;;;;1.70;1.60;;;;;;;;;;468752;253;27670;-74
2021/07/15 05:14:57;;;;;;;1.90;1.80;;;;;;;;;;468778;253;27639;-73
2021/07/15 05:17:01;;;;;;;1.60;1.60;;;;;;;;;;468787;253;27552;-74
2021/07/15 05:19:01;;;;;;;1.77;1.60;;;;;;;;;;468673;254;27541;-74
2021/07/15 05:21:03;;;;;;;1.80;1.70;;;;;;;;;;468774;253;27560;-75
2021/07/15 05:23:06;;;;;;;1.80;1.70;;;;;;;;;;468790;253;27688;-74
2021/07/15 05:25:08;;;;;;;1.60;1.50;;;;;;;;;;468825;253;27558;-75
2021/07/15 05:27:10;;;;;;;1.67;1.57;;;;;;;;;;468848;253;27624;-74
2021/07/15 05:29:12;;;;;;;1.60;1.50;;;;;;;;;;468857;254;27540;-75
2021/07/15 05:31:14;;;;;;;1.50;1.40;;;;;;;;;;468819;254;27525;-74
2021/07/15 05:33:16;;;;;;;1.57;1.50;;;;;;;;;;468817;253;27676;-75
2021/07/15 05:35:18;;;;;;;1.50;1.40;;;;;;;;;;468797;253;27648;-74
2021/07/15 05:37:20;;;;;;;1.47;1.47;;;;;;;;;;468834;253;27539;-74
2021/07/15 05:39:22;;;;;;;1.80;1.70;;;;;;;;;;468810;253;28054;-74
2021/07/15 05:41:25;;;;;;;1.20;1.20;;;;;;;;;;468799;254;27596;-74
2021/07/15 05:43:27;;;;;;;1.77;1.67;;;;;;;;;;468789;254;28872;-74
2021/07/15 05:45:29;;;;;;;1.63;1.53;;;;;;;;;;468800;253;27564;-74
2021/07/15 05:47:31;;;;;;;1.30;1.30;;;;;;;;;;468792;253;28120;-74
2021/07/15 05:49:33;;;;;;;1.43;1.43;;;;;;;;;;468810;253;28020;-75
2021/07/15 05:51:35;;;;;;;1.40;1.40;;;;;;;;;;468678;253;28092;-75
2021/07/15 05:53:38;;;;;;;1.20;1.20;;;;;;;;;;468816;254;27654;-75
2021/07/15 05:55:39;;;;;;;1.10;1.10;;;;;;;;;;468816;254;28099;-75
2021/07/15 05:57:42;;;;;;;1.50;1.50;;;;;;;;;;468787;253;27600;-74
2021/07/15 05:59:44;;;;;;;1.50;1.50;;;;;;;;;;468818;253;27595;-75
2021/07/15 06:01:46;;;;;;;1.70;1.60;;;;;;;;;;468797;254;27679;-75
2021/07/15 06:03:48;;;;;;;1.50;1.50;;;;;;;;;;468767;253;27596;-74
2021/07/15 06:05:50;;;;;;;1.90;1.80;;;;;;;;;;468813;253;27642;-75
2021/07/15 06:07:52;;;;;;;1.30;1.30;;;;;;;;;;468786;253;27676;-74
2021/07/15 06:09:54;;;;;;;1.37;1.37;;;;;;;;;;468803;253;27586;-74
2021/07/15 06:11:56;;;;;;;1.20;1.20;;;;;;;;;;468795;254;28286;-75
2021/07/15 06:13:58;;;;;;;1.67;1.57;;;;;;;;;;468803;253;27598;-75
2021/07/15 06:16:01;;;;;;;1.50;1.50;;;;;;;;;;468814;253;27690;-74
2021/07/15 06:18:03;;;;;;;1.60;1.60;;;;;;;;;;468785;253;27596;-75
2021/07/15 06:20:05;;;;;;;1.87;1.77;;;;;;;;;;468769;254;27588;-74
2021/07/15 06:22:07;;;;;;;1.90;1.80;;;;;;;;;;468784;253;27605;-74
2021/07/15 06:24:09;;;;;;;1.67;1.67;;;;;;;;;;468792;253;27544;-75
2021/07/15 06:26:11;;;;;;;1.30;1.30;;;;;;;;;;468809;253;27635;-74
2021/07/15 06:28:13;;;;;;;1.80;1.70;;;;;;;;;;468806;253;27611;-75
2021/07/15 06:30:15;;;;;;;1.50;1.50;;;;;;;;;;468793;253;27589;-74
2021/07/15 06:32:17;;;;;;;1.60;1.50;;;;;;;;;;468807;253;27635;-75
2021/07/15 06:34:20;;;;;;;1.70;1.60;;;;;;;;;;468783;253;27559;-75
2021/07/15 06:36:22;;;;;;;1.50;1.43;;;;;;;;;;468808;253;27549;-74
2021/07/15 06:38:24;;;;;;;1.80;1.70;;;;;;;;;;468804;253;27641;-74
2021/07/15 06:40:26;;;;;;;1.60;1.50;;;;;;;;;;468809;253;27587;-74
2021/07/15 06:42:28;;;;;;;1.37;1.37;;;;;;;;;;468812;253;27546;-74
2021/07/15 06:44:30;;;;;;;1.30;1.30;;;;;;;;;;468775;254;28262;-75
2021/07/15 06:46:33;;;;;;;1.50;1.50;;;;;;;;;;468754;253;27603;-74
2021/07/15 06:48:34;;;;;;;1.50;1.40;;;;;;;;;;468741;253;28224;-74
2021/07/15 06:50:36;;;;;;;1.30;1.30;;;;;;;;;;468736;253;28021;-74
2021/07/15 06:52:39;;;;;;;1.40;1.40;;;;;;;;;;468773;253;28144;-74
2021/07/15 06:54:41;;;;;;;1.10;1.10;;;;;;;;;;468757;253;27598;-75
2021/07/15 06:56:43;;;;;;;1.40;1.40;;;;;;;;;;468783;253;28075;-74
2021/07/15 06:58:45;;;;;;;1.33;1.33;;;;;;;;;;468850;249;27576;-74
2021/07/15 07:00:47;;;;;;;1.50;1.50;;;;;;;;;;468840;253;28027;-75
2021/07/15 07:02:49;;;;;;;1.70;1.60;;;;;;;;;;468858;253;27558;-75
2021/07/15 07:04:51;;;;;;;1.73;1.73;;;;;;;;;;468824;253;28115;-75
2021/07/15 07:06:53;;;;;;;1.57;1.57;;;;;;;;;;469612;250;27548;-75
2021/07/15 07:08:56;;;;;;;1.50;1.50;;;;;;;;;;468792;253;28008;-74
2021/07/15 07:10:58;;;;;;;1.57;1.57;;;;;;;;;;468744;253;27606;-75
2021/07/15 07:13:00;;;;;;;1.40;1.40;;;;;;;;;;468819;253;28050;-74
2021/07/15 07:15:02;;;;;;;1.50;1.40;;;;;;;;;;468825;253;27566;-74
2021/07/15 07:17:04;;;;;;;1.30;1.30;;;;;;;;;;468803;253;28107;-75
2021/07/15 07:19:06;;;;;;;1.73;1.70;;;;;;;;;;468812;253;27520;-74
2021/07/15 07:21:08;;;;;;;1.70;1.70;;;;;;;;;;468845;253;28086;-74
2021/07/15 07:23:13;;;;;;;1.43;1.43;;;;;;;;;;472849;251;27470;-74
2021/07/15 07:25:12;;;;;;;1.60;1.60;;;;;;;;;;474167;251;28710;-74
2021/07/15 07:27:15;;;;;;;1.30;1.30;;;;;;;;;;474261;249;27905;-74
2021/07/15 07:29:17;;;;;;;1.30;1.30;;;;;;;;;;474229;250;27421;-74
2021/07/15 07:31:19;;;;;;;1.60;1.50;;;;;;;;;;474288;249;27997;-74
2021/07/15 07:33:21;;;;;;;1.60;1.50;;;;;;;;;;474306;249;27417;-74
2021/07/15 07:35:23;;;;;;;1.73;1.63;;;;;;;;;;474285;250;27909;-74
2021/07/15 07:37:28;;;;;;;1.40;1.40;;;;;;;;;;474334;250;27454;-74
2021/07/15 07:39:27;;;;;;;1.60;1.60;;;;;;;;;;474162;251;27888;-74
2021/07/15 07:41:29;;;;;;;1.40;1.40;;;;;;;;;;474187;249;27420;-74
2021/07/15 07:43:31;;;;;;;1.63;1.53;;;;;;;;;;474353;250;27889;-74
2021/07/15 07:45:34;;;;;;;1.60;1.50;;;;;;;;;;474364;249;27493;-74
2021/07/15 07:47:36;;;;;;;1.30;1.30;;;;;;;;;;474315;249;28143;-74
2021/07/15 07:49:38;;;;;;;1.23;1.23;;;;;;;;;;472681;249;28034;-74
2021/07/15 07:51:40;;;;;;;1.67;1.57;;;;;;;;;;468527;253;28057;-74
2021/07/15 07:53:44;;;;;;;1.50;1.50;;;;;;;;;;468660;253;27571;-74
2021/07/15 07:55:46;;;;;;;1.50;1.40;;;;;;;;;;468836;253;27617;-74
2021/07/15 07:57:47;;;;;;;1.73;1.63;;;;;;;;;;468782;253;27645;-75
2021/07/15 07:59:49;;;;;;;1.20;1.20;;;;;;;;;;465597;253;27435;-74
2021/07/15 08:01:51;;;;;;;1.57;1.57;;;;;;;;;;465653;254;27561;-74
2021/07/15 08:03:54;;;;;;;1.40;1.40;;;;;;;;;;465611;253;27457;-74
2021/07/15 08:05:56;;;;;;;1.40;1.40;;;;;;;;;;465553;253;27496;-74
2021/07/15 08:07:58;;;;;;;1.50;1.50;;;;;;;;;;468001;253;27632;-75
2021/07/15 08:10:00;;;;;;;1.40;1.37;;;;;;;;;;468429;253;27606;-74
2021/07/15 08:12:02;;;;;;;1.40;1.40;;;;;;;;;;468676;253;27583;-75
2021/07/15 08:14:04;;;;;;;1.40;1.40;;;;;;;;;;468858;253;27559;-74
2021/07/15 08:16:06;;;;;;;1.53;1.53;;;;;;;;;;468858;253;27573;-74
2021/07/15 08:18:08;;;;;;;1.67;1.63;;;;;;;;;;468768;253;27656;-74
2021/07/15 08:20:11;;;;;;;1.80;1.70;;;;;;;;;;468464;253;27528;-74
2021/07/15 08:22:13;;;;;;;1.90;1.80;;;;;;;;;;468526;253;27621;-74
2021/07/15 08:24:15;;;;;;;1.70;1.60;;;;;;;;;;468518;253;27579;-74
2021/07/15 08:26:17;;;;;;;1.80;1.70;;;;;;;;;;468893;253;28033;-74
2021/07/15 08:28:19;;;;;;;1.80;1.70;;;;;;;;;;468869;253;27574;-74
2021/07/15 08:30:21;;;;;;;1.93;1.83;;;;;;;;;;468794;253;28020;-74
2021/07/15 08:32:23;;;;;;;1.80;1.80;;;;;;;;;;468787;254;27680;-74
2021/07/15 08:34:25;;;;;;;1.87;1.77;;;;;;;;;;468783;253;28091;-74
2021/07/15 08:36:31;;;;;;;1.80;1.70;;;;;;;;;;468776;253;27607;-74
2021/07/15 08:38:30;;;;;;;1.77;1.67;;;;;;;;;;468586;254;28072;-74
2021/07/15 08:40:32;;;;;;;2.27;2.17;;;;;;;;;;468807;253;27594;-74
2021/07/15 08:42:34;;;;;;;2.20;2.10;;;;;;;;;;468762;253;28082;-74
2021/07/15 08:44:36;;;;;;;1.73;1.70;;;;;;;;;;468818;254;27614;-74
2021/07/15 08:46:38;;;;;;;2.17;2.07;;;;;;;;;;468822;253;28058;-74
2021/07/15 08:48:40;;;;;;;1.93;1.83;;;;;;;;;;468804;253;27572;-74
2021/07/15 08:50:42;;;;;;;2.00;1.90;;;;;;;;;;468791;249;28116;-74
2021/07/15 08:52:47;;;;;;;1.80;1.70;;;;;;;;;;468821;253;27543;-74
2021/07/15 08:55:19;;;;;;;1.83;1.73;;;;;;;;;;468312;254;28006;-74
2021/07/15 08:57:04;;;;;;;1.70;1.63;;;;;;;;;;467092;253;27583;-75
2021/07/15 08:59:06;;;;;;;2.10;2.00;;;;;;;;;;468347;253;27594;-74
2021/07/15 09:01:08;;;;;;;1.70;1.60;;;;;;;;;;468444;253;27598;-74
2021/07/15 09:03:10;;;;;;;1.60;1.60;;;;;;;;;;468855;253;27686;-74
2021/07/15 09:05:12;;;;;;;1.90;1.80;;;;;;;;;;468436;253;27663;-74
2021/07/15 09:07:14;;;;;;;1.40;1.40;;;;;;;;;;468479;253;28140;-74
2021/07/15 09:09:16;;;;;;;1.87;1.77;;;;;;;;;;468338;251;27588;-74
2021/07/15 09:11:18;;;;;;;1.70;1.60;;;;;;;;;;468522;253;28954;-74
2021/07/15 09:13:21;;;;;;;1.30;1.30;;;;;;;;;;468831;253;27670;-74
2021/07/15 09:15:23;;;;;;;2.03;1.93;;;;;;;;;;468843;253;28158;-74
2021/07/15 09:17:25;;;;;;;1.90;1.80;;;;;;;;;;468774;253;27585;-74
2021/07/15 09:19:28;;;;;;;1.77;1.67;;;;;;;;;;468834;253;28017;-74
2021/07/15 09:21:31;;;;;;;1.77;1.67;;;;;;;;;;468812;252;27989;-74
2021/07/15 09:23:31;;;;;;;1.70;1.60;;;;;;;;;;468834;252;28106;-74
2021/07/15 09:25:33;;;;;;;1.80;1.70;;;;;;;;;;468838;253;27559;-74
2021/07/15 09:27:35;;;;;;;2.00;1.90;;;;;;;;;;468813;253;28076;-74
2021/07/15 09:29:37;;;;;;;1.90;1.80;;;;;;;;;;468829;253;27640;-74
2021/07/15 09:31:40;;;;;;;1.50;1.50;;;;;;;;;;468690;253;28017;-74
2021/07/15 09:33:42;;;;;;;1.70;1.60;;;;;;;;;;468770;253;27574;-74
2021/07/15 09:35:44;;;;;;;1.90;1.80;;;;;;;;;;468853;253;28101;-73
2021/07/15 09:37:46;;;;;;;2.13;2.03;;;;;;;;;;468848;253;27602;-73
2021/07/15 09:39:48;;;;;;;2.43;2.33;;;;;;;;;;468799;253;28051;-73
2021/07/15 09:41:50;;;;;;;2.10;2.00;;;;;;;;;;468825;253;27584;-74
2021/07/15 09:43:52;;;;;;;1.93;1.83;;;;;;;;;;468853;253;28000;-73
2021/07/15 09:45:54;;;;;;;1.93;1.83;;;;;;;;;;468805;253;27936;-74
2021/07/15 09:47:56;;;;;;;1.90;1.80;;;;;;;;;;468837;253;28786;-73
2021/07/15 09:49:59;;;;;;;2.13;2.03;;;;;;;;;;468847;253;27969;-74
2021/07/15 09:52:01;;;;;;;1.80;1.70;;;;;;;;;;468810;253;28096;-74
2021/07/15 09:54:06;;;;;;;2.40;2.30;;;;;;;;;;468806;253;27622;-74
2021/07/15 09:56:05;;;;;;;2.10;2.00;;;;;;;;;;468746;253;27575;-74
2021/07/15 09:58:07;;;;;;;1.90;1.80;;;;;;;;;;468613;253;27682;-74
2021/07/15 10:00:09;;;;;;;2.10;2.00;;;;;;;;;;468809;253;28158;-74
2021/07/15 10:02:11;;;;;;;2.30;2.20;;;;;;;;;;468795;253;27685;-74
2021/07/15 10:04:13;;;;;;;2.40;2.30;;;;;;;;;;468815;253;28081;-74
2021/07/15 10:06:16;;;;;;;2.33;2.23;;;;;;;;;;468814;253;27601;-74
2021/07/15 10:08:18;;;;;;;2.40;2.30;;;;;;;;;;468800;253;28942;-74
2021/07/15 10:10:20;;;;;;;2.50;2.30;;;;;;;;;;468840;253;27558;-74
2021/07/15 10:12:22;;;;;;;3.20;2.50;;;;;;;;;;468815;253;28052;-74
2021/07/15 10:14:24;;;;;;;2.60;2.47;;;;;;;;;;468738;253;27568;-74
2021/07/15 10:16:26;;;;;;;2.30;2.20;;;;;;;;;;468807;253;28086;-74
2021/07/15 10:18:28;;;;;;;1.90;1.80;;;;;;;;;;468816;253;27558;-74
2021/07/15 10:20:30;;;;;;;2.00;1.90;;;;;;;;;;468689;253;28042;-74
2021/07/15 10:22:32;;;;;;;2.10;2.00;;;;;;;;;;468793;253;27598;-74
2021/07/15 10:24:35;;;;;;;2.50;2.30;;;;;;;;;;468773;253;28007;-74
2021/07/15 10:26:37;;;;;;;2.00;1.90;;;;;;;;;;468633;253;27659;-74
2021/07/15 10:28:39;;;;;;;2.53;2.27;;;;;;;;;;468396;253;28089;-74
2021/07/15 10:30:41;;;;;;;1.90;1.80;;;;;;;;;;468778;253;27533;-74
2021/07/15 10:32:43;;;;;;;1.93;1.83;;;;;;;;;;468753;253;28050;-74
2021/07/15 10:34:49;;;;;;;2.10;1.90;;;;;;;;;;468793;253;27524;-74
2021/07/15 10:36:47;;;;;;;2.03;1.83;;;;;;;;;;468533;254;28027;-74
2021/07/15 10:38:51;;;;;;;2.33;2.17;;;;;;;;;;468815;253;27539;-74
2021/07/15 10:40:51;;;;;;;2.20;1.80;;;;;;;;;;468708;254;28834;-74
2021/07/15 10:42:54;;;;;;;2.03;1.93;;;;;;;;;;468770;253;27564;-74
2021/07/15 10:44:56;;;;;;;1.70;1.60;;;;;;;;;;468782;253;28077;-74
2021/07/15 10:46:58;;;;;;;1.77;1.67;;;;;;;;;;468785;253;27589;-74
2021/07/15 10:49:00;;;;;;;1.70;1.60;;;;;;;;;;468784;254;28073;-74
2021/07/15 10:51:02;;;;;;;1.80;1.70;;;;;;;;;;468798;253;27583;-74
2021/07/15 10:53:04;;;;;;;2.00;1.90;;;;;;;;;;468782;253;28139;-74
2021/07/15 10:55:06;;;;;;;1.80;1.70;;;;;;;;;;468769;253;27674;-74
2021/07/15 10:57:08;;;;;;;2.00;1.90;;;;;;;;;;468681;253;28044;-74
2021/07/15 10:59:11;;;;;;;1.80;1.70;;;;;;;;;;468660;253;27677;-74
2021/07/15 11:01:13;;;;;;;4.03;1.80;;;;;;;;;;468747;253;28147;-74
2021/07/15 11:03:15;;;;;;;1.90;1.80;;;;;;;;;;468799;253;27588;-74
2021/07/15 11:05:17;;;;;;;2.10;1.90;;;;;;;;;;473534;251;27449;-74
2021/07/15 11:07:19;;;;;;;2.07;1.97;;;;;;;;;;474150;250;27545;-74
2021/07/15 11:09:21;;;;;;;5.13;1.80;;;;;;;;;;474296;249;27569;-74
2021/07/15 11:11:23;;;;;;;1.80;1.70;;;;;;;;;;474323;250;27469;-74
2021/07/15 11:13:25;;;;;;;1.90;1.80;;;;;;;;;;474324;249;27561;-74
2021/07/15 11:15:28;;;;;;;1.40;1.40;;;;;;;;;;474347;249;27421;-74
2021/07/15 11:17:30;;;;;;;1.53;1.53;;;;;;;;;;474304;250;27425;-74
2021/07/15 11:19:32;;;;;;;1.27;1.27;;;;;;;;;;474324;249;27429;-74
2021/07/15 11:21:34;;;;;;;1.50;1.40;;;;;;;;;;474255;249;27489;-74
2021/07/15 11:23:36;;;;;;;1.37;1.37;;;;;;;;;;474361;250;27518;-74
2021/07/15 11:25:44;;;;;;;1.73;1.63;;;;;;;;;;474361;249;27497;-74
2021/07/15 11:27:46;;;;;;;1.40;1.40;;;;;;;;;;474336;249;27429;-74
2021/07/15 11:29:48;;;;;;;1.30;1.30;;;;;;;;;;474239;249;27512;-74
2021/07/15 11:31:53;;;;;;;1.47;1.47;;;;;;;;;;474291;250;27421;-74
2021/07/15 11:33:55;;;;;;;1.40;1.40;;;;;;;;;;474350;249;27457;-74
2021/07/15 11:36:03;;;;;;;1.30;1.30;;;;;;;;;;474325;249;27449;-74
2021/07/15 11:38:00;;;;;;;1.20;1.20;;;;;;;;;;473526;251;27542;-74
2021/07/15 11:40:02;;;;;;;1.30;1.30;;;;;;;;;;474274;250;27505;-75
2021/07/15 11:42:04;;;;;;;1.50;1.50;;;;;;;;;;474289;249;27492;-74
2021/07/15 11:44:08;;;;;;;1.80;1.70;;;;;;;;;;474273;249;27498;-74
2021/07/15 11:46:10;;;;;;;1.70;1.60;;;;;;;;;;474324;249;27895;-74
2021/07/15 11:48:12;;;;;;;2.33;2.23;;;;;;;;;;474314;250;27405;-74
2021/07/15 11:50:14;;;;;;;1.87;1.77;;;;;;;;;;474227;249;28077;-74
2021/07/15 11:52:17;;;;;;;1.83;1.70;;;;;;;;;;474300;250;27544;-74
2021/07/15 11:54:19;;;;;;;1.97;1.87;;;;;;;;;;469235;249;28016;-74
2021/07/15 11:56:21;;;;;;;2.13;1.80;;;;;;;;;;468709;253;27639;-74
2021/07/15 11:58:23;;;;;;;1.93;1.83;;;;;;;;;;468784;253;28099;-74
2021/07/15 12:00:25;;;;;;;2.03;1.93;;;;;;;;;;468823;253;27538;-74
2021/07/15 12:02:27;;;;;;;1.50;1.50;;;;;;;;;;468748;253;28839;-74
2021/07/15 12:04:29;;;;;;;2.13;2.03;;;;;;;;;;468806;254;27590;-74
2021/07/15 12:06:31;;;;;;;2.53;2.33;;;;;;;;;;468792;254;27654;-74
2021/07/15 12:08:36;;;;;;;2.20;2.10;;;;;;;;;;468728;254;27572;-74
2021/07/15 12:10:36;;;;;;;2.77;2.20;;;;;;;;;;468621;254;27547;-74
2021/07/15 12:12:38;;;;;;;1.80;1.70;;;;;;;;;;468738;253;27542;-74